Time;durP1;ratioP1;P1;durP2;ratioP2;P2;SDS_P1;SDS_P2;PMS_P1;PMS_P2;Temp;Humidity;BMP_temperature;BMP_pressure;BME280_temperature;BME280_humidity;BME280_pressure;Samples;Min_cycle;Max_cycle;Signal;HPM_P1;HPM_P2
2023/08/19 00:00:06;;;;;;;16.08;9.38;;;21.60;79.30;;;;;;4951499;28;20511;-89
2023/08/19 00:02:42;;;;;;;16.08;10.50;;;21.60;79.20;;;;;;4950417;28;20204;-89
2023/08/19 00:05:09;;;;;;;15.07;9.73;;;21.60;79.30;;;;;;4943468;28;20048;-89
2023/08/19 00:07:37;;;;;;;13.70;9.65;;;21.60;79.40;;;;;;4948163;29;20134;-89
2023/08/19 00:10:05;;;;;;;15.32;10.30;;;21.60;79.40;;;;;;4961665;28;20046;-89
2023/08/19 00:12:32;;;;;;;13.90;9.55;;;21.60;79.40;;;;;;4951177;29;20393;-89
2023/08/19 00:14:59;;;;;;;13.80;9.75;;;21.60;79.40;;;;;;4950092;28;20044;-89
2023/08/19 00:17:26;;;;;;;14.07;9.60;;;21.50;79.40;;;;;;4957530;28;20047;-89
2023/08/19 00:19:53;;;;;;;15.68;9.38;;;21.50;79.30;;;;;;4951539;29;20548;-89
2023/08/19 00:22:20;;;;;;;13.63;9.75;;;21.60;79.20;;;;;;4965381;28;20046;-89
2023/08/19 00:24:47;;;;;;;16.17;9.70;;;21.60;79.20;;;;;;4949956;28;20046;-88
2023/08/19 00:27:14;;;;;;;13.57;9.55;;;21.50;79.50;;;;;;4946340;29;20054;-89
2023/08/19 00:29:42;;;;;;;14.23;9.93;;;21.40;79.80;;;;;;4943912;29;20054;-89
2023/08/19 00:32:09;;;;;;;14.10;9.80;;;21.30;79.90;;;;;;4951161;29;20102;-89
2023/08/19 00:34:40;;;;;;;13.90;9.60;;;21.40;79.90;;;;;;4961135;28;20050;-89
2023/08/19 00:37:07;;;;;;;13.88;9.80;;;21.30;79.90;;;;;;4948510;28;20051;-89
2023/08/19 00:39:34;;;;;;;13.73;9.65;;;21.30;79.90;;;;;;4948354;29;20044;-89
2023/08/19 00:42:01;;;;;;;15.43;10.07;;;21.30;79.80;;;;;;4947901;29;20445;-89
2023/08/19 00:44:30;;;;;;;15.73;9.80;;;21.30;79.80;;;;;;4945330;28;20048;-89
2023/08/19 00:46:58;;;;;;;16.35;9.98;;;21.30;79.90;;;;;;4969189;28;20078;-89
2023/08/19 00:49:25;;;;;;;17.58;10.02;;;21.30;79.80;;;;;;4951289;29;20110;-89
2023/08/19 00:51:53;;;;;;;15.55;9.32;;;21.30;80.00;;;;;;4961645;28;20050;-89
2023/08/19 00:54:20;;;;;;;14.33;8.87;;;21.20;80.10;;;;;;4949103;29;20482;-89
2023/08/19 00:56:47;;;;;;;13.82;9.20;;;21.20;80.10;;;;;;4949254;29;20051;-88
2023/08/19 00:59:14;;;;;;;14.80;9.93;;;21.10;80.20;;;;;;4962739;28;20054;-87
2023/08/19 01:01:41;;;;;;;14.13;9.38;;;21.10;80.30;;;;;;4936704;29;20128;-89
2023/08/19 01:04:08;;;;;;;13.27;8.90;;;21.10;80.30;;;;;;4942102;29;20415;-89
2023/08/19 01:06:53;;;;;;;14.90;9.83;;;21.10;80.40;;;;;;4920943;29;20040;-89
2023/08/19 01:09:29;;;;;;;14.35;9.98;;;21.00;80.50;;;;;;4915349;29;20506;-89
2023/08/19 01:12:42;;;;;;;16.00;10.25;;;21.00;80.60;;;;;;4943497;29;20051;-89
2023/08/19 01:15:17;;;;;;;14.10;10.13;;;20.90;80.70;;;;;;4904928;29;20060;-89
2023/08/19 01:17:49;;;;;;;14.90;10.02;;;20.90;80.90;;;;;;4918028;29;20058;-88
2023/08/19 01:20:18;;;;;;;14.97;10.07;;;20.80;81.00;;;;;;4937993;29;20043;-89
2023/08/19 01:23:03;;;;;;;15.38;9.68;;;20.70;81.10;;;;;;4926626;29;20051;-89
2023/08/19 01:25:32;;;;;;;15.32;9.80;;;20.70;81.20;;;;;;4932095;29;20048;-89
2023/08/19 01:28:05;;;;;;;15.27;10.32;;;20.80;81.20;;;;;;4937125;29;20064;-89
2023/08/19 01:30:33;;;;;;;15.82;10.18;;;20.80;81.00;;;;;;4931830;29;20500;-88
2023/08/19 01:33:02;;;;;;;14.73;10.47;;;20.80;80.90;;;;;;4933714;29;20033;-89
2023/08/19 01:35:39;;;;;;;14.98;10.00;;;20.90;80.90;;;;;;4937329;29;20054;-89
2023/08/19 01:38:31;;;;;;;13.70;10.23;;;20.80;80.90;;;;;;4922032;29;20039;-88
2023/08/19 01:41:00;;;;;;;15.18;9.90;;;20.90;81.00;;;;;;4946927;29;20140;-88
2023/08/19 01:43:28;;;;;;;19.63;11.68;;;20.90;81.00;;;;;;4947682;29;20036;-89
2023/08/19 01:45:56;;;;;;;16.23;11.20;;;20.90;81.00;;;;;;4936416;29;20047;-88
2023/08/19 01:48:23;;;;;;;14.82;10.30;;;20.90;80.90;;;;;;4929834;29;20036;-89
2023/08/19 01:50:50;;;;;;;15.65;10.93;;;20.80;81.00;;;;;;4925901;29;20048;-88
2023/08/19 01:53:17;;;;;;;14.73;10.00;;;20.80;81.10;;;;;;4928604;29;20040;-89
2023/08/19 01:55:44;;;;;;;15.70;10.95;;;20.80;81.20;;;;;;4949848;28;20532;-88
2023/08/19 01:58:11;;;;;;;13.93;10.00;;;20.80;81.00;;;;;;4942166;29;20550;-88
2023/08/19 02:00:38;;;;;;;16.00;11.15;;;20.90;80.90;;;;;;4929185;29;20048;-88
2023/08/19 02:03:07;;;;;;;16.60;10.75;;;20.80;80.80;;;;;;4929274;29;20130;-88
2023/08/19 02:05:34;;;;;;;16.73;9.88;;;20.90;80.80;;;;;;4959340;28;20051;-88
2023/08/19 02:08:01;;;;;;;16.60;10.55;;;20.80;80.80;;;;;;4948962;28;20043;-88
2023/08/19 02:10:28;;;;;;;14.27;10.07;;;20.80;80.80;;;;;;4962435;28;20048;-88
2023/08/19 02:12:55;;;;;;;16.90;10.57;;;20.80;80.70;;;;;;4957045;28;20139;-88
2023/08/19 02:15:22;;;;;;;16.50;10.25;;;20.80;80.30;;;;;;4946847;28;20102;-88
2023/08/19 02:17:50;;;;;;;15.25;10.95;;;20.90;80.20;;;;;;4946901;28;20123;-89
2023/08/19 02:20:17;;;;;;;15.23;11.13;;;20.90;80.10;;;;;;4949058;29;20079;-88
2023/08/19 02:22:44;;;;;;;16.47;9.97;;;20.90;80.10;;;;;;4954889;28;20394;-88
2023/08/19 02:25:14;;;;;;;15.23;10.10;;;20.80;80.30;;;;;;4955929;28;20057;-88
2023/08/19 02:27:42;;;;;;;15.85;10.48;;;20.80;80.50;;;;;;4956432;29;20046;-88
2023/08/19 02:30:10;;;;;;;16.85;11.00;;;20.70;80.50;;;;;;4956268;28;20556;-88
2023/08/19 02:32:40;;;;;;;14.52;9.93;;;20.70;80.80;;;;;;4955202;28;20497;-89
2023/08/19 02:35:09;;;;;;;16.40;10.30;;;20.60;81.10;;;;;;4946666;29;20532;-89
2023/08/19 02:37:36;;;;;;;14.60;9.85;;;20.50;81.40;;;;;;4946451;28;20131;-89
2023/08/19 02:40:06;;;;;;;15.13;10.70;;;20.50;81.40;;;;;;4950501;29;20584;-89
2023/08/19 02:42:33;;;;;;;14.88;9.95;;;20.50;81.30;;;;;;4955717;28;20098;-89
2023/08/19 02:45:00;;;;;;;12.65;9.68;;;20.50;81.20;;;;;;4944581;29;20051;-89
2023/08/19 02:47:27;;;;;;;13.50;10.20;;;20.50;81.00;;;;;;4945044;29;20043;-89
2023/08/19 02:49:54;;;;;;;16.00;10.45;;;20.50;81.20;;;;;;4954352;29;20035;-89
2023/08/19 02:52:21;;;;;;;15.43;10.20;;;20.60;81.10;;;;;;4944885;29;20122;-89
2023/08/19 02:54:48;;;;;;;16.20;10.95;;;20.50;81.30;;;;;;4952272;29;20058;-89
2023/08/19 02:57:15;;;;;;;15.48;10.05;;;20.50;81.30;;;;;;4948142;29;20054;-89
2023/08/19 02:59:42;;;;;;;14.67;10.67;;;20.50;81.40;;;;;;4947450;29;20047;-88
2023/08/19 03:02:09;;;;;;;16.77;11.18;;;20.40;81.50;;;;;;4943891;29;20099;-89
2023/08/19 03:04:37;;;;;;;16.45;10.23;;;20.40;81.50;;;;;;4948877;28;20058;-89
2023/08/19 03:07:04;;;;;;;15.25;10.77;;;20.40;81.50;;;;;;4941512;28;20086;-89
2023/08/19 03:09:31;;;;;;;17.33;10.95;;;20.40;81.50;;;;;;4945990;28;20043;-88
2023/08/19 03:11:58;;;;;;;14.23;10.17;;;20.30;81.70;;;;;;4954317;29;20498;-88
2023/08/19 03:14:25;;;;;;;13.68;9.73;;;20.30;81.70;;;;;;4955659;28;20043;-89
2023/08/19 03:16:54;;;;;;;13.20;9.60;;;20.30;81.90;;;;;;4954079;28;20055;-89
2023/08/19 03:19:21;;;;;;;14.80;9.90;;;20.40;81.60;;;;;;4963280;28;20609;-88
2023/08/19 03:21:48;;;;;;;13.55;9.52;;;20.40;81.50;;;;;;4945678;28;20434;-88
2023/08/19 03:24:15;;;;;;;15.83;10.27;;;20.50;81.20;;;;;;4954130;29;20043;-89
2023/08/19 03:26:42;;;;;;;13.20;9.75;;;20.50;81.10;;;;;;4950704;28;20044;-89
2023/08/19 03:29:10;;;;;;;15.77;10.63;;;20.50;81.10;;;;;;4954686;29;20048;-89
2023/08/19 03:31:37;;;;;;;13.02;9.32;;;20.50;81.10;;;;;;4946228;29;20473;-89
2023/08/19 03:34:04;;;;;;;14.32;9.98;;;20.50;80.90;;;;;;4936359;29;20042;-88
2023/08/19 03:36:31;;;;;;;22.37;11.33;;;20.50;80.90;;;;;;4932394;29;20044;-89
2023/08/19 03:38:58;;;;;;;13.88;9.73;;;20.40;81.10;;;;;;4945082;29;20040;-89
2023/08/19 03:41:25;;;;;;;13.68;9.13;;;20.50;81.10;;;;;;4945662;29;20414;-89
2023/08/19 03:43:52;;;;;;;19.33;10.63;;;20.40;81.10;;;;;;4946385;28;20537;-89
2023/08/19 03:46:19;;;;;;;14.23;9.50;;;20.40;81.20;;;;;;4961391;28;20044;-89
2023/08/19 03:48:46;;;;;;;14.17;10.20;;;20.40;81.20;;;;;;4945307;28;20043;-89
2023/08/19 03:51:14;;;;;;;14.32;9.75;;;20.40;81.30;;;;;;4941732;29;20058;-89
2023/08/19 03:53:41;;;;;;;12.77;9.35;;;20.40;81.20;;;;;;4948396;29;20051;-89
2023/08/19 03:56:08;;;;;;;15.02;10.55;;;20.30;81.40;;;;;;4941693;29;20051;-89
2023/08/19 03:58:36;;;;;;;14.70;9.43;;;20.30;81.40;;;;;;4959462;28;20052;-88
2023/08/19 04:01:04;;;;;;;13.47;9.53;;;20.30;81.40;;;;;;4944514;29;20050;-88
2023/08/19 04:03:33;;;;;;;13.75;9.90;;;20.20;81.40;;;;;;4946491;28;20130;-89
2023/08/19 04:06:00;;;;;;;15.18;9.90;;;20.30;81.40;;;;;;4950373;28;20047;-89
2023/08/19 04:08:27;;;;;;;16.00;11.15;;;20.20;81.50;;;;;;4955351;28;20051;-89
2023/08/19 04:10:55;;;;;;;13.88;10.48;;;20.30;81.40;;;;;;4955908;28;20086;-88
2023/08/19 04:13:22;;;;;;;14.83;10.43;;;20.30;81.20;;;;;;4948226;28;20043;-89
2023/08/19 04:15:49;;;;;;;15.02;10.82;;;20.30;81.00;;;;;;4962989;28;20051;-89
2023/08/19 04:18:16;;;;;;;16.00;10.68;;;20.30;81.10;;;;;;4957123;28;20046;-89
2023/08/19 04:20:43;;;;;;;13.60;10.23;;;20.30;81.30;;;;;;4954620;28;20543;-88
2023/08/19 04:23:12;;;;;;;13.70;10.75;;;20.20;81.40;;;;;;4966907;28;20035;-89
2023/08/19 04:25:39;;;;;;;13.03;9.53;;;20.20;81.60;;;;;;4963592;28;20388;-89
2023/08/19 04:28:06;;;;;;;16.70;10.48;;;20.20;81.40;;;;;;4945638;28;20131;-89
2023/08/19 04:30:34;;;;;;;14.48;10.48;;;20.20;81.40;;;;;;4968824;28;20101;-89
2023/08/19 04:33:01;;;;;;;15.80;10.40;;;20.10;81.50;;;;;;4947685;29;20126;-88
2023/08/19 04:35:29;;;;;;;14.55;10.38;;;20.10;81.80;;;;;;4962121;28;20047;-88
2023/08/19 04:37:56;;;;;;;13.77;10.50;;;20.10;81.90;;;;;;4945886;28;20039;-88
2023/08/19 04:40:23;;;;;;;15.32;10.45;;;20.10;81.90;;;;;;4947870;28;20039;-88
2023/08/19 04:42:50;;;;;;;15.00;10.75;;;20.10;81.90;;;;;;4953585;28;20054;-89
2023/08/19 04:45:17;;;;;;;13.60;10.32;;;20.10;81.90;;;;;;4957581;28;20050;-88
2023/08/19 04:47:47;;;;;;;14.75;9.77;;;20.10;82.00;;;;;;4953936;28;20043;-88
2023/08/19 04:50:15;;;;;;;13.53;9.73;;;20.10;82.00;;;;;;4944090;28;20047;-88
2023/08/19 04:52:42;;;;;;;13.57;10.00;;;20.10;81.90;;;;;;4955438;28;20166;-86
2023/08/19 04:55:09;;;;;;;12.95;9.93;;;20.10;81.80;;;;;;4946380;29;20059;-86
2023/08/19 04:57:36;;;;;;;14.30;10.00;;;20.20;81.70;;;;;;4945952;29;20051;-86
2023/08/19 05:00:06;;;;;;;13.48;9.35;;;20.30;81.60;;;;;;4955494;28;20050;-86
2023/08/19 05:02:37;;;;;;;13.87;9.60;;;20.40;81.40;;;;;;4956613;28;20071;-86
2023/08/19 05:05:07;;;;;;;14.35;9.10;;;20.50;81.00;;;;;;4942906;28;20047;-87
2023/08/19 05:07:34;;;;;;;12.68;10.15;;;20.50;80.90;;;;;;4951064;28;20050;-88
2023/08/19 05:10:01;;;;;;;14.20;10.35;;;20.60;80.90;;;;;;4962080;28;20035;-86
2023/08/19 05:12:28;;;;;;;15.95;10.13;;;20.60;80.80;;;;;;4951517;28;20051;-87
2023/08/19 05:14:55;;;;;;;12.93;9.70;;;20.60;80.60;;;;;;4948860;28;20512;-87
2023/08/19 05:17:22;;;;;;;12.82;9.80;;;20.70;80.60;;;;;;4949248;28;20073;-86
2023/08/19 05:19:49;;;;;;;12.63;9.73;;;20.80;80.30;;;;;;4944594;29;20052;-86
2023/08/19 05:22:17;;;;;;;14.57;9.50;;;20.90;80.20;;;;;;4940702;29;20039;-89
2023/08/19 05:24:44;;;;;;;13.95;9.88;;;21.00;80.10;;;;;;4941596;29;20062;-87
2023/08/19 05:27:11;;;;;;;14.17;9.00;;;21.10;79.80;;;;;;4954826;28;20090;-88
2023/08/19 05:29:38;;;;;;;14.18;9.10;;;21.10;79.60;;;;;;4951182;28;20047;-89
2023/08/19 05:32:05;;;;;;;14.07;9.18;;;21.20;79.40;;;;;;4950132;28;20047;-87
2023/08/19 05:34:33;;;;;;;16.00;9.18;;;21.40;78.70;;;;;;4961045;28;20047;-86
2023/08/19 05:37:04;;;;;;;11.93;9.45;;;21.50;78.60;;;;;;4961107;28;20046;-88
2023/08/19 05:39:32;;;;;;;11.73;8.70;;;21.60;78.50;;;;;;4961767;28;20051;-94
2023/08/19 05:50:02;;;;;;;12.23;9.07;;;21.80;77.90;;;;;;5186437;23;20113;-92
2023/08/19 05:52:29;;;;;;;13.93;8.90;;;21.90;77.70;;;;;;4886439;29;20075;-91
2023/08/19 05:54:56;;;;;;;11.77;8.97;;;22.00;77.80;;;;;;4900470;29;20057;-91
2023/08/19 05:57:25;;;;;;;11.60;8.15;;;22.00;77.70;;;;;;4885341;29;20526;-90
2023/08/19 05:59:52;;;;;;;11.75;8.60;;;22.10;77.00;;;;;;4901441;29;20076;-92
2023/08/19 06:02:19;;;;;;;13.65;9.05;;;22.20;77.00;;;;;;4885447;29;20063;-86
2023/08/19 06:04:46;;;;;;;13.82;8.65;;;22.30;76.80;;;;;;4869268;29;20048;-88
2023/08/19 06:07:15;;;;;;;10.93;8.33;;;22.40;76.70;;;;;;4866367;29;20068;-90
2023/08/19 06:09:42;;;;;;;11.90;8.50;;;22.50;76.80;;;;;;4853566;29;20052;-90
2023/08/19 06:12:10;;;;;;;13.07;9.13;;;22.60;76.40;;;;;;4869057;29;20052;-90
2023/08/19 06:14:37;;;;;;;13.05;8.05;;;22.80;76.40;;;;;;4884709;29;20112;-91
2023/08/19 06:17:04;;;;;;;12.07;8.60;;;23.00;75.90;;;;;;4884675;29;20068;-90
2023/08/19 06:19:31;;;;;;;11.20;8.20;;;23.00;75.70;;;;;;4887216;29;20053;-96
2023/08/19 06:22:06;;;;;;;13.23;8.52;;;23.10;75.30;;;;;;4902090;29;20077;-96
2023/08/19 06:24:35;;;;;;;11.85;8.73;;;23.20;75.50;;;;;;4891362;29;20052;-95
2023/08/19 06:27:02;;;;;;;12.10;8.10;;;23.30;75.00;;;;;;4894567;29;20419;-96
2023/08/19 06:29:29;;;;;;;14.45;8.88;;;23.30;74.70;;;;;;4893885;29;20052;-96
2023/08/19 06:31:57;;;;;;;29.73;9.13;;;23.30;74.80;;;;;;4887602;29;20406;-95
2023/08/19 06:38:47;;;;;;;12.35;8.52;;;23.50;74.20;;;;;;4884601;29;20487;-95
2023/08/19 06:41:15;;;;;;;11.13;8.10;;;23.70;74.30;;;;;;4866136;29;20411;-94
2023/08/19 06:43:43;;;;;;;14.07;7.82;;;23.80;74.20;;;;;;4865282;29;20140;-93
2023/08/19 06:46:11;;;;;;;14.60;8.23;;;24.00;73.30;;;;;;4850716;29;20053;-94
2023/08/19 06:48:40;;;;;;;12.65;8.68;;;24.10;74.00;;;;;;4850738;29;20090;-91
2023/08/19 06:51:07;;;;;;;10.90;8.20;;;24.20;74.00;;;;;;4852217;29;20105;-92
2023/08/19 06:53:34;;;;;;;11.20;8.30;;;24.40;72.50;;;;;;4883256;29;20467;-86
2023/08/19 06:56:08;;;;;;;11.32;8.15;;;24.60;72.30;;;;;;4873062;29;20148;-88
2023/08/19 06:58:43;;;;;;;11.13;8.20;;;24.60;71.90;;;;;;4883004;29;20143;-85
2023/08/19 07:01:18;;;;;;;12.05;8.30;;;24.70;71.70;;;;;;4885728;29;20451;-87
2023/08/19 07:03:46;;;;;;;11.82;8.38;;;24.80;71.80;;;;;;4882804;29;20558;-88
2023/08/19 07:06:16;;;;;;;12.35;8.35;;;24.90;70.80;;;;;;4878778;29;20458;-87
2023/08/19 07:08:45;;;;;;;12.82;7.90;;;25.00;71.10;;;;;;4863919;29;20504;-86
2023/08/19 07:11:12;;;;;;;10.80;8.53;;;25.10;71.20;;;;;;4881629;29;20044;-86
2023/08/19 07:13:40;;;;;;;11.57;8.32;;;25.20;71.90;;;;;;4872476;29;20063;-86
2023/08/19 07:16:10;;;;;;;11.43;8.20;;;25.40;71.30;;;;;;4866558;29;20104;-86
2023/08/19 07:18:40;;;;;;;15.00;9.20;;;25.40;70.40;;;;;;4876285;29;20057;-86
2023/08/19 07:21:13;;;;;;;12.25;8.55;;;25.50;70.00;;;;;;4880244;29;20045;-89
2023/08/19 07:23:41;;;;;;;10.80;7.77;;;25.60;70.30;;;;;;4879114;29;20052;-89
2023/08/19 07:26:09;;;;;;;11.10;7.88;;;25.60;71.00;;;;;;4882732;29;20044;-88
2023/08/19 07:28:36;;;;;;;12.23;7.97;;;25.70;69.50;;;;;;4867260;29;20494;-88
2023/08/19 07:31:06;;;;;;;10.43;7.93;;;25.90;69.20;;;;;;4882631;29;20048;-89
2023/08/19 07:33:33;;;;;;;10.48;8.40;;;25.90;68.30;;;;;;4882617;29;20525;-90
2023/08/19 07:36:00;;;;;;;9.70;7.57;;;26.10;69.50;;;;;;4860574;29;20056;-89
2023/08/19 07:38:28;;;;;;;12.50;7.68;;;26.10;69.60;;;;;;4879418;29;20048;-90
2023/08/19 07:40:55;;;;;;;16.33;8.18;;;26.30;69.90;;;;;;4882451;29;20055;-88
2023/08/19 07:43:23;;;;;;;11.38;8.07;;;26.60;68.60;;;;;;4882342;29;20041;-89
2023/08/19 07:45:50;;;;;;;11.38;7.50;;;26.60;67.70;;;;;;4866686;29;20122;-87
2023/08/19 07:48:17;;;;;;;12.07;7.97;;;26.70;67.70;;;;;;4882521;29;20435;-87
2023/08/19 07:50:44;;;;;;;11.10;7.80;;;26.90;67.50;;;;;;4882126;29;20456;-87
2023/08/19 07:53:12;;;;;;;9.38;7.32;;;26.90;66.60;;;;;;4882136;29;20044;-86
2023/08/19 07:55:39;;;;;;;10.55;7.35;;;27.00;66.20;;;;;;4881733;29;20056;-87
2023/08/19 07:58:07;;;;;;;12.05;7.63;;;27.10;65.10;;;;;;4866551;29;20048;-87
2023/08/19 08:00:35;;;;;;;10.47;7.30;;;27.10;65.00;;;;;;4881961;29;20064;-87
2023/08/19 08:03:03;;;;;;;9.77;6.32;;;27.10;63.00;;;;;;4881880;29;20044;-87
2023/08/19 08:05:30;;;;;;;9.60;6.07;;;27.30;62.70;;;;;;4875102;29;20049;-87
2023/08/19 08:07:57;;;;;;;8.73;6.20;;;27.40;61.80;;;;;;4866521;29;20143;-86
2023/08/19 08:10:24;;;;;;;9.90;6.75;;;27.50;62.10;;;;;;4881944;29;20444;-86
2023/08/19 08:12:51;;;;;;;10.57;6.57;;;27.60;61.50;;;;;;4881747;29;20125;-87
2023/08/19 08:15:19;;;;;;;10.63;6.10;;;27.60;62.50;;;;;;4866588;29;20649;-87
2023/08/19 08:17:46;;;;;;;9.18;5.90;;;27.70;63.20;;;;;;4866219;29;20056;-87
2023/08/19 08:20:14;;;;;;;9.15;5.68;;;27.80;62.00;;;;;;4866411;29;20044;-87
2023/08/19 08:22:41;;;;;;;9.73;6.53;;;27.90;61.50;;;;;;4866055;29;20076;-87
2023/08/19 08:25:09;;;;;;;11.33;6.57;;;27.90;62.70;;;;;;4881825;29;20048;-87
2023/08/19 08:27:36;;;;;;;10.77;6.35;;;27.90;60.50;;;;;;4866317;29;20049;-86
2023/08/19 08:30:05;;;;;;;9.43;6.82;;;28.00;59.70;;;;;;4881654;29;20044;-87
2023/08/19 08:32:32;;;;;;;10.30;6.25;;;28.10;60.50;;;;;;4881579;29;20083;-91
2023/08/19 08:34:59;;;;;;;11.60;6.90;;;28.10;59.40;;;;;;4866308;29;20045;-86
2023/08/19 08:37:26;;;;;;;8.93;6.40;;;28.20;59.80;;;;;;4881141;29;20044;-86
2023/08/19 08:39:53;;;;;;;10.40;6.38;;;28.30;60.60;;;;;;4881229;29;20499;-86
2023/08/19 08:42:23;;;;;;;18.25;7.72;;;28.40;60.70;;;;;;4881277;29;20443;-87
2023/08/19 08:44:54;;;;;;;11.30;6.78;;;28.30;61.10;;;;;;4896975;29;20140;-87
2023/08/19 08:47:22;;;;;;;10.10;6.10;;;28.10;60.50;;;;;;4881300;29;20558;-87
2023/08/19 08:49:50;;;;;;;8.40;6.33;;;28.00;59.10;;;;;;4881382;29;20100;-87
2023/08/19 08:52:17;;;;;;;9.95;6.68;;;27.90;60.00;;;;;;4865786;29;20491;-87
2023/08/19 08:54:47;;;;;;;9.68;6.90;;;27.80;59.90;;;;;;4881422;29;20055;-87
2023/08/19 08:57:16;;;;;;;8.55;6.03;;;27.60;60.90;;;;;;4881110;29;20056;-87
2023/08/19 08:59:44;;;;;;;9.82;6.65;;;27.60;60.40;;;;;;4881029;29;20056;-87
2023/08/19 09:02:12;;;;;;;11.40;6.80;;;27.50;60.00;;;;;;4881513;29;20521;-87
2023/08/19 09:04:44;;;;;;;9.85;6.82;;;27.50;61.00;;;;;;4865737;29;20056;-87
2023/08/19 09:07:24;;;;;;;10.15;7.00;;;27.50;61.30;;;;;;4884200;29;20052;-87
2023/08/19 09:09:52;;;;;;;9.10;6.85;;;27.50;61.70;;;;;;4869509;29;20056;-87
2023/08/19 09:12:21;;;;;;;10.20;6.97;;;27.40;63.20;;;;;;4884645;29;20052;-86
2023/08/19 09:14:54;;;;;;;11.83;6.77;;;27.40;64.00;;;;;;4884921;29;20064;-86
2023/08/19 09:17:21;;;;;;;12.75;7.15;;;27.30;64.70;;;;;;4884844;29;20072;-87
2023/08/19 09:19:48;;;;;;;9.20;6.97;;;27.20;66.10;;;;;;4869441;29;20052;-87
2023/08/19 09:22:15;;;;;;;9.88;7.30;;;27.20;65.60;;;;;;4869364;29;20052;-86
2023/08/19 09:24:43;;;;;;;13.05;7.30;;;27.20;67.90;;;;;;4868961;29;20101;-87
2023/08/19 09:27:12;;;;;;;11.00;8.67;;;27.10;67.30;;;;;;4884761;29;20048;-87
2023/08/19 09:29:51;;;;;;;11.27;8.60;;;27.00;66.60;;;;;;4884569;29;20045;-87
2023/08/19 09:32:39;;;;;;;12.40;8.32;;;26.80;67.10;;;;;;4869024;29;20099;-87
2023/08/19 09:35:08;;;;;;;10.48;7.53;;;26.80;68.30;;;;;;4884597;29;20556;-87
2023/08/19 09:37:36;;;;;;;10.70;8.00;;;26.80;68.00;;;;;;4884164;29;20049;-86
2023/08/19 09:40:07;;;;;;;11.07;7.63;;;26.80;67.50;;;;;;4875938;29;20052;-87
2023/08/19 09:42:37;;;;;;;10.50;8.15;;;26.90;66.40;;;;;;4868710;29;20578;-87
2023/08/19 09:45:06;;;;;;;20.52;8.10;;;26.80;66.00;;;;;;4868931;29;20059;-87
2023/08/19 09:47:49;;;;;;;10.95;8.07;;;26.80;66.30;;;;;;4868709;29;20108;-87
2023/08/19 09:50:18;;;;;;;30.02;9.60;;;26.90;66.30;;;;;;4884038;29;20052;-87
2023/08/19 09:53:00;;;;;;;13.63;9.13;;;27.00;66.50;;;;;;4883936;29;20040;-87
2023/08/19 09:55:30;;;;;;;16.17;8.75;;;26.90;65.70;;;;;;4884647;29;20045;-87
2023/08/19 09:57:58;;;;;;;14.23;8.85;;;26.90;65.70;;;;;;4868555;29;20143;-87
2023/08/19 10:00:25;;;;;;;11.95;6.03;;;26.80;67.00;;;;;;4868609;29;20136;-87
2023/08/19 10:02:52;;;;;;;13.68;5.18;;;26.60;63.20;;;;;;4868477;29;20059;-87
2023/08/19 10:05:19;;;;;;;9.37;4.43;;;26.00;62.20;;;;;;4884117;29;20045;-87
2023/08/19 10:08:01;;;;;;;7.72;3.58;;;25.70;62.00;;;;;;4883953;29;20045;-87
2023/08/19 10:10:30;;;;;;;7.28;3.33;;;25.30;60.50;;;;;;4884076;29;20440;-87
2023/08/19 10:12:57;;;;;;;9.88;4.25;;;25.10;60.20;;;;;;4883913;29;20045;-87
2023/08/19 10:15:26;;;;;;;12.02;4.30;;;24.80;61.10;;;;;;4884095;29;20087;-86
2023/08/19 10:17:57;;;;;;;8.57;3.50;;;24.60;62.50;;;;;;4882824;29;20080;-87
2023/08/19 10:20:28;;;;;;;7.80;3.83;;;24.50;63.10;;;;;;4883853;29;20055;-87
2023/08/19 10:22:59;;;;;;;9.02;3.88;;;24.40;63.60;;;;;;4883204;29;20499;-87
2023/08/19 10:25:28;;;;;;;6.95;3.50;;;24.40;65.30;;;;;;4883577;29;20143;-87
2023/08/19 10:28:11;;;;;;;9.77;4.30;;;24.50;64.50;;;;;;4868077;29;20053;-87
2023/08/19 10:30:39;;;;;;;9.33;4.50;;;24.40;67.00;;;;;;4883555;29;20049;-87
2023/08/19 10:33:32;;;;;;;8.50;4.45;;;24.40;69.20;;;;;;4883621;29;20048;-86
2023/08/19 10:36:04;;;;;;;8.45;3.90;;;24.20;71.00;;;;;;4883354;29;20048;-87
2023/08/19 10:38:51;;;;;;;11.20;4.80;;;24.10;71.90;;;;;;4883493;29;20507;-87
2023/08/19 10:41:24;;;;;;;9.63;4.50;;;24.10;72.90;;;;;;4883329;29;20415;-87
2023/08/19 10:43:57;;;;;;;9.60;4.27;;;24.10;72.60;;;;;;4883281;29;20045;-87
2023/08/19 10:46:31;;;;;;;11.10;4.60;;;24.10;72.20;;;;;;4867944;29;20502;-87
2023/08/19 10:48:58;;;;;;;10.77;4.88;;;24.10;73.30;;;;;;4878239;29;20104;-87
2023/08/19 10:51:51;;;;;;;15.35;5.22;;;24.10;74.10;;;;;;4868151;29;20049;-87
2023/08/19 10:54:35;;;;;;;17.27;5.40;;;24.10;73.30;;;;;;4868056;29;20451;-87
2023/08/19 10:57:22;;;;;;;13.40;7.20;;;24.20;73.70;;;;;;4868040;29;20060;-87
2023/08/19 10:59:57;;;;;;;10.27;6.28;;;24.30;74.20;;;;;;4882989;29;20053;-87
2023/08/19 11:02:28;;;;;;;14.77;7.28;;;24.40;73.90;;;;;;4864680;29;20439;-88
2023/08/19 11:04:58;;;;;;;12.65;7.32;;;24.60;73.50;;;;;;4849497;29;20097;-87
2023/08/19 11:07:26;;;;;;;17.02;8.32;;;24.70;74.40;;;;;;4849233;29;20063;-88
2023/08/19 11:09:56;;;;;;;25.90;8.33;;;25.00;73.90;;;;;;4849261;29;20044;-87
2023/08/19 11:12:29;;;;;;;22.05;8.43;;;25.00;72.80;;;;;;4848898;29;20388;-87
2023/08/19 11:14:56;;;;;;;19.05;8.82;;;25.10;72.60;;;;;;4849055;29;20064;-88
2023/08/19 11:17:31;;;;;;;16.95;8.82;;;25.20;73.70;;;;;;4864247;29;20045;-87
2023/08/19 11:20:12;;;;;;;21.35;9.77;;;25.30;74.00;;;;;;4864146;29;20057;-87
2023/08/19 11:22:47;;;;;;;29.70;12.30;;;25.50;72.90;;;;;;4864103;29;20052;-87
2023/08/19 11:25:15;;;;;;;28.95;12.05;;;25.70;73.00;;;;;;4863608;29;20121;-87
2023/08/19 11:27:43;;;;;;;31.23;12.43;;;25.90;74.40;;;;;;4863864;29;20555;-87
2023/08/19 11:30:12;;;;;;;31.83;12.85;;;26.00;71.70;;;;;;4863440;29;20078;-87
2023/08/19 11:32:44;;;;;;;25.75;12.75;;;26.20;71.00;;;;;;4864033;29;20041;-87
2023/08/19 11:35:12;;;;;;;19.87;11.47;;;26.40;71.40;;;;;;4871944;29;20061;-87
2023/08/19 11:37:41;;;;;;;20.42;13.57;;;26.50;72.20;;;;;;4863923;29;20060;-87
2023/08/19 11:40:08;;;;;;;16.38;9.93;;;26.60;71.00;;;;;;4863648;29;20053;-86
2023/08/19 11:43:04;;;;;;;17.20;9.73;;;26.60;70.60;;;;;;4863709;29;20060;-87
2023/08/19 11:45:39;;;;;;;12.98;8.75;;;26.50;69.70;;;;;;4848471;29;20148;-87
2023/08/19 11:48:11;;;;;;;14.93;9.20;;;26.60;69.00;;;;;;4863684;29;20139;-87
2023/08/19 11:50:44;;;;;;;14.75;9.35;;;26.80;69.00;;;;;;4848643;29;20060;-87
2023/08/19 11:53:21;;;;;;;16.02;9.02;;;26.90;68.70;;;;;;4863425;29;20139;-87
2023/08/19 11:55:52;;;;;;;15.90;10.15;;;27.00;68.30;;;;;;4848299;29;20143;-87
2023/08/19 11:58:20;;;;;;;16.05;10.13;;;27.10;69.00;;;;;;4863349;29;20114;-87
2023/08/19 12:00:47;;;;;;;15.03;9.67;;;27.20;68.20;;;;;;4863553;29;20100;-87
2023/08/19 12:03:16;;;;;;;12.25;9.10;;;27.30;68.00;;;;;;4863646;29;20453;-87
2023/08/19 12:05:44;;;;;;;14.52;8.73;;;27.50;68.30;;;;;;4863485;29;20041;-87
2023/08/19 12:08:34;;;;;;;13.45;9.27;;;27.60;67.30;;;;;;4847981;29;20148;-87
2023/08/19 12:11:02;;;;;;;13.75;9.77;;;27.50;67.70;;;;;;4851904;29;20053;-87
2023/08/19 12:13:29;;;;;;;13.80;9.30;;;27.50;68.80;;;;;;4863231;29;20049;-87
2023/08/19 12:15:58;;;;;;;12.57;9.32;;;27.30;68.20;;;;;;4878587;29;20048;-87
2023/08/19 12:18:29;;;;;;;12.32;8.38;;;27.40;69.30;;;;;;4848069;29;20048;-87
2023/08/19 12:20:56;;;;;;;13.63;10.27;;;27.40;70.20;;;;;;4847934;29;20084;-87
2023/08/19 12:23:23;;;;;;;13.98;9.63;;;27.60;71.10;;;;;;4862853;29;20045;-87
2023/08/19 12:25:51;;;;;;;13.10;8.33;;;27.80;70.60;;;;;;4848009;29;20113;-87
2023/08/19 12:28:19;;;;;;;15.27;10.30;;;28.10;68.10;;;;;;4863075;29;20064;-87
2023/08/19 12:30:47;;;;;;;13.35;9.65;;;28.20;68.10;;;;;;4878433;29;20053;-87
2023/08/19 12:33:14;;;;;;;14.35;10.90;;;28.40;66.20;;;;;;4847779;29;20060;-87
2023/08/19 12:35:44;;;;;;;20.05;11.95;;;28.60;66.40;;;;;;4862937;29;20489;-87
2023/08/19 12:38:16;;;;;;;18.20;11.67;;;28.80;66.00;;;;;;4865051;29;20064;-87
2023/08/19 12:40:45;;;;;;;15.55;11.20;;;28.90;65.50;;;;;;4881197;29;20413;-87
2023/08/19 12:43:13;;;;;;;23.27;12.65;;;29.00;64.40;;;;;;4881570;29;20049;-86
2023/08/19 12:45:41;;;;;;;21.38;12.27;;;29.00;62.80;;;;;;4881189;29;20507;-87
2023/08/19 12:48:09;;;;;;;20.77;11.80;;;28.90;62.60;;;;;;4881323;29;20096;-87
2023/08/19 12:50:37;;;;;;;16.57;11.03;;;29.00;63.30;;;;;;4881406;29;20077;-87
2023/08/19 12:53:06;;;;;;;17.35;10.35;;;28.90;64.20;;;;;;4881723;29;20074;-87
2023/08/19 12:55:33;;;;;;;17.95;9.80;;;28.90;64.80;;;;;;4881132;29;20091;-87
2023/08/19 12:58:01;;;;;;;14.52;9.57;;;28.80;63.50;;;;;;4866200;29;20055;-87